Time;durP1;ratioP1;P1;durP2;ratioP2;P2;SDS_P1;SDS_P2;PMS_P1;PMS_P2;Temp;Humidity;BMP_temperature;BMP_pressure;BME280_temperature;BME280_humidity;BME280_pressure;Samples;Min_cycle;Max_cycle;Signal;HPM_P1;HPM_P2
2022/04/02 00:00:43;;;;;;;;;79.33;60.67;;;;;3.58;97.57;97636.44;6280359;20;2880656;-53
2022/04/02 00:03:13;;;;;;;;;84.00;57.00;;;;;3.35;97.97;97639.75;6314024;20;2773295;-50
2022/04/02 00:05:43;;;;;;;;;74.67;57.00;;;;;3.51;98.54;97640.44;6279310;20;3636706;-49
2022/04/02 00:08:12;;;;;;;;;84.00;63.00;;;;;3.42;97.55;97643.69;6312934;20;3647160;-56
2022/04/02 00:10:42;;;;;;;;;78.00;59.33;;;;;3.51;97.40;97648.41;6315381;20;3625350;-51
2022/04/02 00:13:12;;;;;;;;;76.33;57.00;;;;;3.42;97.44;97649.00;6313102;20;2878474;-53
2022/04/02 00:15:42;;;;;;;;;79.33;57.67;;;;;3.38;97.13;97647.50;6311306;20;3651318;-51
2022/04/02 00:18:12;;;;;;;;;83.67;60.67;;;;;3.16;97.47;97654.19;6312206;20;3636764;-54
2022/04/02 00:20:42;;;;;;;;;83.00;61.00;;;;;3.42;96.57;97655.16;6315163;20;3649210;-52
2022/04/02 00:26:01;;;;;;;;;80.00;60.67;;;;;3.23;97.65;97660.78;6311541;20;2876394;-51
2022/04/02 00:28:41;;;;;;;;;83.33;62.00;;;;;3.48;96.22;97645.94;6313722;20;2884763;-55
2022/04/02 00:31:14;;;;;;;;;76.33;59.00;;;;;3.42;96.94;97654.28;6311867;20;2881783;-56
2022/04/02 00:33:46;;;;;;;;;78.67;57.67;;;;;3.38;97.42;97663.41;6312120;20;3632576;-49
2022/04/02 00:36:21;;;;;;;;;81.00;59.67;;;;;3.54;96.09;97661.47;6311788;20;3649426;-51
2022/04/02 00:38:51;;;;;;;;;76.67;57.67;;;;;3.43;96.44;97661.31;6312214;20;3647084;-55
2022/04/02 00:41:20;;;;;;;;;90.33;62.00;;;;;3.41;96.61;97658.75;6312587;20;3649174;-51
2022/04/02 00:44:21;;;;;;;;;77.33;59.00;;;;;3.88;94.77;97651.25;6313313;20;3637799;-53
2022/04/02 00:46:51;;;;;;;;;72.00;55.33;;;;;4.06;93.55;97644.72;6309838;20;3636706;-54
2022/04/02 00:49:21;;;;;;;;;72.00;54.67;;;;;3.92;93.90;97650.09;6312428;20;2885793;-54
2022/04/02 00:51:51;;;;;;;;;79.33;56.67;;;;;3.81;94.40;97658.78;6314082;20;3641915;-54
2022/04/02 00:54:21;;;;;;;;;77.50;58.50;;;;;3.57;95.21;97660.41;6311356;20;3593958;-56
2022/04/02 00:56:52;;;;;;;;;78.33;58.00;;;;;3.42;96.20;97659.59;6311948;20;2892111;-52
2022/04/02 00:59:22;;;;;;;;;76.00;55.67;;;;;3.83;95.25;97653.38;6309951;20;3652320;-55
2022/04/02 01:01:51;;;;;;;;;78.67;57.67;;;;;3.77;93.75;97648.47;6309684;20;3645032;-53
2022/04/02 01:04:21;;;;;;;;;77.67;60.00;;;;;3.80;94.01;97648.28;6313950;20;2878370;-52
2022/04/02 01:06:52;;;;;;;;;71.33;56.00;;;;;3.76;94.31;97647.59;6312642;20;2869081;-53
2022/04/02 01:09:22;;;;;;;;;76.00;56.67;;;;;3.68;95.28;97645.47;6310937;20;3638808;-54
2022/04/02 01:11:54;;;;;;;;;75.67;56.33;;;;;3.82;94.17;97646.34;6310799;20;3635639;-52
2022/04/02 01:14:24;;;;;;;;;78.67;58.00;;;;;4.04;93.00;97636.00;6312771;20;3640844;-54
2022/04/02 01:16:53;;;;;;;;;77.33;57.00;;;;;3.91;92.49;97635.13;6312152;20;3654455;-49
2022/04/02 01:19:23;;;;;;;;;70.00;52.33;;;;;4.08;92.28;97636.63;6310044;20;3651287;-55
2022/04/02 01:21:52;;;;;;;;;71.33;55.33;;;;;4.10;92.31;97640.03;6313643;20;3640867;-51
2022/04/02 01:24:22;;;;;;;;;69.33;55.33;;;;;3.90;93.00;97646.72;6312583;20;3635718;-51
2022/04/02 01:26:52;;;;;;;;;76.33;57.33;;;;;3.99;93.96;97642.56;6312587;20;3651323;-54
2022/04/02 01:29:22;;;;;;;;;74.00;57.67;;;;;3.93;93.33;97650.00;6308622;20;3641902;-50
2022/04/02 01:31:51;;;;;;;;;81.00;58.33;;;;;3.91;92.94;97645.75;6311908;20;3646070;-53
2022/04/02 01:34:21;;;;;;;;;81.33;59.67;;;;;4.11;92.26;97647.91;6313065;20;2878598;-51
2022/04/02 01:36:50;;;;;;;;;78.33;58.00;;;;;3.68;92.71;97644.63;6312587;20;3648213;-51
2022/04/02 01:39:20;;;;;;;;;77.00;58.67;;;;;4.00;92.28;97658.38;6311563;20;2894158;-54
2022/04/02 01:41:49;;;;;;;;;81.33;61.67;;;;;3.84;92.32;97655.06;6313143;20;2876598;-52
2022/04/02 01:44:19;;;;;;;;;77.67;58.67;;;;;3.77;94.23;97670.56;6310927;20;2902596;-52
2022/04/02 01:46:49;;;;;;;;;80.67;57.00;;;;;3.74;93.53;97674.28;6311322;20;3659589;-51
2022/04/02 01:49:18;;;;;;;;;82.67;56.00;;;;;3.73;94.90;97669.91;6311075;20;3661705;-53
2022/04/02 01:51:48;;;;;;;;;85.00;61.67;;;;;4.04;94.66;97678.47;6311163;20;3645044;-52
2022/04/02 01:54:19;;;;;;;;;81.00;58.67;;;;;4.04;93.79;97677.63;6312859;20;3639832;-54
2022/04/02 01:56:49;;;;;;;;;78.00;58.33;;;;;3.73;93.83;97685.81;6309715;20;3626346;-49
2022/04/02 01:59:18;;;;;;;;;71.33;56.33;;;;;3.96;92.73;97691.41;6310111;20;3624180;-51
2022/04/02 02:01:48;;;;;;;;;78.00;57.00;;;;;3.98;92.86;97694.81;6308567;20;3635778;-52
2022/04/02 02:04:18;;;;;;;;;76.33;59.33;;;;;3.81;92.99;97692.44;6311863;20;3636845;-54
2022/04/02 02:06:47;;;;;;;;;79.00;58.33;;;;;3.69;92.66;97684.34;6310658;20;3633640;-50
2022/04/02 02:09:17;;;;;;;;;66.00;52.67;;;;;3.57;93.84;97695.75;6308012;20;3644258;-50
2022/04/02 02:11:47;;;;;;;;;75.33;58.33;;;;;3.61;93.50;97701.72;6311236;20;2877382;-52
2022/04/02 02:14:16;;;;;;;;;75.33;56.00;;;;;3.42;94.75;97702.03;6311160;20;2883620;-55
2022/04/02 02:16:46;;;;;;;;;83.67;58.67;;;;;3.26;95.32;97702.19;6310690;20;3644208;-55
2022/04/02 02:19:17;;;;;;;;;75.33;59.33;;;;;3.29;95.78;97702.84;6309144;20;2878575;-56
2022/04/02 02:21:46;;;;;;;;;76.33;57.67;;;;;3.44;94.95;97703.63;6312357;20;3652343;-52
2022/04/02 02:24:16;;;;;;;;;73.00;56.00;;;;;3.45;93.61;97701.84;6306299;20;2883645;-52
2022/04/02 02:26:46;;;;;;;;;76.00;57.33;;;;;3.50;95.07;97707.69;6311313;20;2881649;-55
2022/04/02 02:29:16;;;;;;;;;75.33;59.33;;;;;3.66;94.32;97711.09;6308569;20;3634686;-52
2022/04/02 02:31:46;;;;;;;;;81.33;60.00;;;;;3.59;93.57;97709.78;6311647;20;3636729;-55
2022/04/02 02:37:04;;;;;;;;;75.00;57.33;;;;;3.61;93.20;97702.56;6312164;20;3639797;-54
2022/04/02 02:39:33;;;;;;;;;82.00;58.67;;;;;3.68;92.54;97698.53;6314620;20;3667943;-52
2022/04/02 02:42:03;;;;;;;;;67.00;56.00;;;;;3.76;92.53;97700.69;6316229;20;2869021;-51
2022/04/02 02:44:33;;;;;;;;;81.67;60.00;;;;;3.68;92.96;97705.66;6281967;20;3655518;-50
2022/04/02 02:47:02;;;;;;;;;72.33;54.00;;;;;3.86;92.05;97699.13;6315850;20;3623139;-51
2022/04/02 02:49:32;;;;;;;;;75.67;59.00;;;;;4.06;91.01;97700.47;6315367;20;3626344;-52
2022/04/02 02:52:02;;;;;;;;;81.00;57.00;;;;;3.77;91.56;97697.09;6315265;20;3650222;-53
2022/04/02 02:54:32;;;;;;;;;73.33;56.67;;;;;3.59;92.26;97699.16;6315907;20;3639802;-49
2022/04/02 02:57:01;;;;;;;;;70.33;53.33;;;;;3.39;92.06;97704.91;6314557;20;2889966;-51
2022/04/02 02:59:31;;;;;;;;;74.00;54.67;;;;;3.78;91.41;97720.03;6314964;20;3649306;-51
2022/04/02 03:02:01;;;;;;;;;70.33;54.00;;;;;3.32;91.83;97722.16;6315776;20;3628494;-53
2022/04/02 03:04:31;;;;;;;;;71.33;54.67;;;;;3.62;91.84;97720.19;6314091;20;2884752;-50
2022/04/02 03:07:01;;;;;;;;;71.33;57.00;;;;;4.00;91.34;97715.94;6315449;20;3627326;-50
2022/04/02 03:09:30;;;;;;;;;75.67;59.00;;;;;3.56;91.47;97709.13;6314036;20;2873316;-55
2022/04/02 03:12:00;;;;;;;;;66.00;55.33;;;;;3.73;91.93;97712.34;6315770;20;2877545;-54
2022/04/02 03:14:30;;;;;;;;;72.33;57.00;;;;;3.69;90.99;97705.56;6315315;20;2881586;-49
2022/04/02 03:16:59;;;;;;;;;77.33;56.00;;;;;3.73;91.56;97722.97;6312541;20;3647119;-53
2022/04/02 03:19:30;;;;;;;;;75.67;56.00;;;;;3.74;91.31;97730.00;6312085;20;3649268;-50
2022/04/02 03:21:59;;;;;;;;;66.00;54.50;;;;;3.49;92.43;97735.19;6315402;20;2876305;-49
2022/04/02 03:24:29;;;;;;;;;68.00;52.00;;;;;3.79;92.55;97726.19;6283419;20;2871129;-53
2022/04/02 03:26:59;;;;;;;;;77.67;57.00;;;;;3.43;92.96;97736.44;6282581;20;3645200;-55
2022/04/02 03:29:28;;;;;;;;;75.67;55.00;;;;;3.94;92.22;97723.38;6312721;20;3634655;-52
2022/04/02 03:31:58;;;;;;;;;80.00;56.00;;;;;3.88;92.91;97725.59;6315691;20;3648169;-49
2022/04/02 03:34:28;;;;;;;;;70.00;54.00;;;;;3.64;92.82;97728.06;6314389;20;3621092;-51
2022/04/02 03:36:57;;;;;;;;;73.00;56.00;;;;;3.48;93.26;97728.19;6314818;20;2882774;-51
2022/04/02 03:39:27;;;;;;;;;76.67;59.00;;;;;3.23;93.91;97729.75;6313622;20;3639990;-52
2022/04/02 03:41:57;;;;;;;;;71.33;56.67;;;;;3.72;92.98;97737.22;6313134;20;2882658;-51
2022/04/02 03:44:26;;;;;;;;;66.33;56.67;;;;;3.84;92.21;97729.38;6311298;20;2885688;-50
2022/04/02 03:47:08;;;;;;;;;74.67;57.67;;;;;3.85;92.70;97720.50;6313667;20;3631581;-52
2022/04/02 03:49:46;;;;;;;;;72.67;56.00;;;;;3.69;91.89;97729.44;6311776;20;3642602;-50
2022/04/02 03:52:16;;;;;;;;;78.33;59.33;;;;;3.63;92.63;97721.88;6313938;20;2886771;-53
2022/04/02 03:54:46;;;;;;;;;77.67;56.33;;;;;3.39;92.97;97734.91;6315197;20;3659592;-51
2022/04/02 03:57:16;;;;;;;;;71.33;55.33;;;;;3.32;93.41;97727.44;6311341;20;2880676;-53
2022/04/02 03:59:46;;;;;;;;;74.67;57.67;;;;;3.86;91.35;97727.50;6311934;20;3637736;-51
2022/04/02 04:02:16;;;;;;;;;76.00;57.33;;;;;3.66;91.77;97727.00;6313987;20;3634751;-51
2022/04/02 04:04:46;;;;;;;;;75.00;60.00;;;;;3.55;91.23;97728.63;6310045;20;2500332;-51
2022/04/02 04:07:15;;;;;;;;;75.67;56.00;;;;;3.54;92.65;97729.59;6283605;20;3640844;-55
2022/04/02 04:09:45;;;;;;;;;69.33;53.67;;;;;3.49;91.47;97737.84;6311144;20;3625374;-52
2022/04/02 04:12:17;;;;;;;;;68.00;54.67;;;;;3.41;91.96;97737.47;6314916;20;2879549;-54
2022/04/02 04:14:47;;;;;;;;;68.33;54.00;;;;;3.48;92.49;97739.66;6314363;20;3640977;-52
2022/04/02 04:17:15;;;;;;;;;70.00;58.00;;;;;3.83;91.30;97743.63;6310318;20;2500341;-51
2022/04/02 04:19:45;;;;;;;;;76.33;59.67;;;;;3.80;91.16;97749.13;6281446;20;2869030;-50
2022/04/02 04:22:15;;;;;;;;;68.67;53.67;;;;;3.71;90.50;97739.94;6313194;20;3630274;-53
2022/04/02 04:24:44;;;;;;;;;71.67;50.33;;;;;3.92;90.76;97741.22;6313600;20;2873290;-52
2022/04/02 04:27:15;;;;;;;;;74.00;51.33;;;;;3.89;90.34;97737.91;6313585;20;3649203;-55
2022/04/02 04:29:45;;;;;;;;;67.00;45.67;;;;;3.92;90.49;97743.88;6310670;20;2874300;-53
2022/04/02 04:32:14;;;;;;;;;71.33;54.00;;;;;3.80;90.49;97749.97;6313350;20;2879411;-54
2022/04/02 04:34:44;;;;;;;;;75.33;59.33;;;;;3.71;91.53;97756.75;6314053;20;2878438;-54
2022/04/02 04:37:14;;;;;;;;;79.33;56.67;;;;;3.72;90.92;97745.16;6312227;20;3649311;-55
2022/04/02 04:39:43;;;;;;;;;71.33;56.67;;;;;3.73;90.74;97749.50;6312870;20;2873251;-51
2022/04/02 04:42:13;;;;;;;;;71.00;53.67;;;;;3.73;90.70;97752.16;6311152;20;2883579;-53
2022/04/02 04:44:42;;;;;;;;;72.50;58.50;;;;;4.07;89.40;97752.63;6313301;20;2865933;-54
2022/04/02 04:47:11;;;;;;;;;77.00;56.67;;;;;3.96;90.05;97761.28;6282584;20;3651243;-53
2022/04/02 04:49:41;;;;;;;;;68.00;54.67;;;;;3.85;90.12;97760.31;6312796;20;3624167;-52
2022/04/02 04:52:09;;;;;;;;;60.00;46.50;;;;;3.92;90.64;97764.25;6310166;20;2496099;-53
2022/04/02 04:54:38;;;;;;;;;76.67;53.33;;;;;3.76;91.50;97760.88;6281765;20;3643019;-55
2022/04/02 04:57:08;;;;;;;;;69.67;53.33;;;;;4.07;90.63;97757.09;6313512;20;2877953;-55
2022/04/02 04:59:37;;;;;;;;;74.33;53.00;;;;;3.86;90.55;97765.50;6305746;20;3639831;-55
2022/04/02 05:02:07;;;;;;;;;70.00;54.33;;;;;4.10;90.86;97763.03;6313363;20;2879621;-55
2022/04/02 05:04:37;;;;;;;;;73.67;57.33;;;;;4.05;89.75;97764.28;6312029;20;3633578;-54
2022/04/02 05:07:07;;;;;;;;;79.00;59.00;;;;;3.54;90.75;97764.94;6313421;20;3635670;-55
2022/04/02 05:09:38;;;;;;;;;72.00;57.00;;;;;3.97;90.89;97772.75;6311181;20;2881577;-54
2022/04/02 05:12:10;;;;;;;;;76.33;56.00;;;;;4.09;91.11;97766.66;6312557;20;3643007;-55
2022/04/02 05:14:39;;;;;;;;;73.67;58.33;;;;;3.80;91.91;97781.84;6312252;20;3628430;-51
2022/04/02 05:17:13;;;;;;;;;72.33;56.33;;;;;4.04;91.71;97776.72;6311123;20;3639820;-52
2022/04/02 05:19:44;;;;;;;;;77.67;59.67;;;;;4.28;91.34;97776.91;6311503;20;3629578;-54
2022/04/02 05:22:14;;;;;;;;;74.33;59.33;;;;;4.18;91.23;97778.47;6309617;20;3621084;-51
2022/04/02 05:24:43;;;;;;;;;74.50;57.50;;;;;4.16;92.23;97783.88;6310439;20;2874249;-54
2022/04/02 05:27:12;;;;;;;;;67.00;53.00;;;;;3.99;92.05;97785.94;6280805;20;3626257;-52
2022/04/02 05:29:42;;;;;;;;;67.67;54.00;;;;;4.01;92.49;97784.88;6310177;20;3633574;-53
2022/04/02 05:32:10;;;;;;;;;73.50;56.50;;;;;4.23;91.63;97784.31;6308749;20;2876321;-54
2022/04/02 05:34:40;;;;;;;;;73.67;56.67;;;;;4.13;91.16;97788.53;6281050;20;2872164;-54
2022/04/02 05:37:10;;;;;;;;;68.67;53.33;;;;;4.23;92.28;97783.47;6311572;20;3636706;-52
2022/04/02 05:39:38;;;;;;;;;67.00;53.00;;;;;4.21;90.41;97790.69;6308256;20;2862802;-54
2022/04/02 05:42:08;;;;;;;;;69.00;53.33;;;;;4.34;90.95;97804.84;6280197;20;3635672;-52
2022/04/02 05:44:39;;;;;;;;;77.00;57.00;;;;;4.12;91.45;97808.94;6310125;20;3651397;-54
2022/04/02 05:47:09;;;;;;;;;71.00;54.67;;;;;4.28;91.51;97813.25;6309064;20;2878474;-53
2022/04/02 05:49:48;;;;;;;;;66.00;48.67;;;;;4.07;91.65;97821.66;6311159;20;3621066;-55
2022/04/02 05:52:17;;;;;;;;;73.00;56.00;;;;;4.20;92.14;97824.38;6312457;20;2757733;-55
2022/04/02 05:54:46;;;;;;;;;71.33;54.67;;;;;4.66;90.02;97823.09;6273564;20;2876419;-52
2022/04/02 05:57:16;;;;;;;;;72.67;52.00;;;;;4.41;89.94;97816.78;6311906;20;3631546;-55
2022/04/02 05:59:45;;;;;;;;;67.00;51.50;;;;;4.39;89.58;97811.56;6309436;20;2861707;-56
2022/04/02 06:02:14;;;;;;;;;71.00;53.33;;;;;4.59;90.01;97823.53;6281014;20;3642933;-52
2022/04/02 06:04:44;;;;;;;;;70.00;52.67;;;;;4.50;88.68;97815.31;6311975;20;3645101;-52
2022/04/02 06:07:14;;;;;;;;;67.00;55.00;;;;;4.57;90.28;97821.91;6313443;20;2879531;-52
2022/04/02 06:09:43;;;;;;;;;76.00;54.67;;;;;4.28;90.75;97816.75;6307652;20;3653339;-53
2022/04/02 06:12:13;;;;;;;;;71.33;49.67;;;;;4.32;90.34;97822.72;6316155;20;2877446;-53
2022/04/02 06:14:43;;;;;;;;;72.00;55.00;;;;;4.45;90.45;97820.94;6317817;20;3631477;-52
2022/04/02 06:17:12;;;;;;;;;83.33;59.00;;;;;4.80;89.01;97821.22;6316218;20;3661886;-54
2022/04/02 06:19:42;;;;;;;;;69.33;54.00;;;;;4.56;88.85;97830.84;6314465;20;2874231;-55
2022/04/02 06:22:12;;;;;;;;;69.33;53.00;;;;;4.53;89.13;97829.25;6317297;20;3642964;-54
2022/04/02 06:24:41;;;;;;;;;61.00;47.00;;;;;4.88;88.14;97828.69;6316119;20;2900322;-55
2022/04/02 06:27:11;;;;;;;;;68.00;53.00;;;;;4.92;88.37;97835.47;6314345;20;2873411;-54
2022/04/02 06:29:40;;;;;;;;;72.67;55.67;;;;;4.43;89.20;97838.78;6316423;20;3645204;-55
2022/04/02 06:32:09;;;;;;;;;63.00;51.50;;;;;5.04;87.80;97837.28;6315442;20;2871108;-52
2022/04/02 06:34:39;;;;;;;;;75.00;59.33;;;;;4.65;88.79;97834.69;6285487;20;3620084;-55
2022/04/02 06:37:08;;;;;;;;;67.00;50.33;;;;;4.76;87.41;97840.97;6314960;20;3636684;-54
2022/04/02 06:39:36;;;;;;;;;61.50;49.50;;;;;4.71;87.73;97836.94;6313234;20;2500272;-55
2022/04/02 06:42:06;;;;;;;;;66.50;52.50;;;;;4.51;87.33;97840.94;6282754;20;2871282;-55
2022/04/02 06:44:35;;;;;;;;;67.33;54.33;;;;;4.80;87.88;97845.16;6282810;20;2875329;-53
2022/04/02 06:47:06;;;;;;;;;73.33;53.67;;;;;5.01;87.80;97848.16;6315023;20;3651316;-55
2022/04/02 06:49:35;;;;;;;;;75.67;53.33;;;;;5.01;86.32;97850.81;6311336;20;3656459;-56
2022/04/02 06:52:06;;;;;;;;;67.00;52.33;;;;;5.25;86.17;97847.41;6314506;20;2867189;-54
2022/04/02 06:54:35;;;;;;;;;70.00;53.33;;;;;4.90;86.65;97848.03;6313476;20;2878536;-54
2022/04/02 06:57:05;;;;;;;;;62.67;47.00;;;;;5.05;86.33;97851.44;6312363;20;2865896;-54
2022/04/02 06:59:35;;;;;;;;;62.33;50.00;;;;;5.10;86.03;97853.78;6313891;20;2868030;-54
2022/04/02 07:02:06;;;;;;;;;64.67;50.33;;;;;5.27;84.78;97856.16;6315231;20;2879507;-55
2022/04/02 07:04:35;;;;;;;;;58.50;44.00;;;;;5.01;86.26;97858.78;6312449;20;2849222;-53
2022/04/02 07:07:04;;;;;;;;;61.00;50.00;;;;;5.18;85.70;97856.78;6286259;20;2856491;-56
2022/04/02 07:09:32;;;;;;;;;66.00;53.00;;;;;4.89;85.86;97861.44;6282013;20;2865901;-53
2022/04/02 07:12:03;;;;;;;;;63.67;49.33;;;;;5.10;87.56;97864.44;6284616;20;2879517;-54
2022/04/02 07:14:33;;;;;;;;;61.00;50.50;;;;;4.98;85.94;97866.13;6301305;20;2853534;-56
2022/04/02 07:17:02;;;;;;;;;60.00;50.00;;;;;5.37;85.75;97857.22;6281842;20;2866951;-58
2022/04/02 07:19:34;;;;;;;;;66.67;51.33;;;;;5.20;87.06;97868.16;6282480;20;2889954;-58
2022/04/02 07:22:09;;;;;;;;;62.00;50.00;;;;;5.26;86.61;97863.25;6314828;20;2846118;-58
2022/04/02 07:24:40;;;;;;;;;69.00;49.67;;;;;5.23;86.52;97867.94;6280680;20;2875296;-60
2022/04/02 07:27:10;;;;;;;;;63.00;51.00;;;;;5.19;85.79;97863.81;6315649;20;2865942;-54
2022/04/02 07:29:40;;;;;;;;;68.00;50.00;;;;;5.65;85.63;97871.22;6312223;20;3638805;-53
2022/04/02 07:32:11;;;;;;;;;85.33;64.00;;;;;5.65;84.82;97874.75;6313375;20;3647288;-53
2022/04/02 07:34:40;;;;;;;;;61.00;50.00;;;;;5.55;85.68;97872.84;6282823;20;2847376;-50
2022/04/02 07:37:45;;;;;;;;;68.67;50.00;;;;;5.55;85.96;97872.84;6279786;20;3634636;-52
2022/04/02 07:40:24;;;;;;;;;61.00;49.00;;;;;5.41;85.27;97874.66;6311225;20;2861794;-56
2022/04/02 07:43:47;;;;;;;;;70.00;51.67;;;;;5.24;87.17;97873.19;6312716;20;3650296;-57
2022/04/02 07:46:30;;;;;;;;;63.00;48.00;;;;;5.40;86.90;97878.28;6309038;20;2878565;-57
2022/04/02 07:49:03;;;;;;;;;62.67;47.67;;;;;5.41;86.51;97892.44;6309144;20;2877447;-54
2022/04/02 07:51:39;;;;;;;;;62.33;48.00;;;;;4.98;87.66;97890.91;6312292;20;2873335;-54
2022/04/02 07:54:10;;;;;;;;;65.67;51.00;;;;;5.28;88.28;97885.28;6316205;20;3630437;-56
2022/04/02 07:56:46;;;;;;;;;60.00;43.67;;;;;5.36;86.93;97879.44;6313941;20;3626436;-56
2022/04/02 07:59:43;;;;;;;;;70.00;49.00;;;;;5.96;85.14;97895.72;6310190;20;2871317;-58
2022/04/02 08:05:02;;;;;;;;;65.67;50.00;;;;;5.84;84.76;97892.91;6314431;20;2888966;-58
2022/04/02 08:07:35;;;;;;;;;59.00;48.00;;;;;6.11;83.89;97900.78;6312825;20;2796086;-52
2022/04/02 08:10:11;;;;;;;;;62.33;49.00;;;;;5.43;84.04;97898.50;6279081;20;2880556;-51
2022/04/02 08:12:42;;;;;;;;;65.33;45.00;;;;;5.42;85.28;97896.78;6315346;20;3636864;-57
2022/04/02 08:15:18;;;;;;;;;51.00;43.50;;;;;6.01;84.51;97898.91;6311798;20;2877404;-56
2022/04/02 08:17:54;;;;;;;;;25.67;10.67;;;;;5.27;87.03;97898.72;6279880;20;3563863;-55
2022/04/02 08:20:25;;;;;;;;;69.00;49.33;;;;;6.09;85.73;97912.53;6309556;20;3622298;-56
2022/04/02 08:22:56;;;;;;;;;62.00;48.00;;;;;5.68;85.53;97914.44;6313162;20;2861741;-56
2022/04/02 08:25:26;;;;;;;;;58.50;45.50;;;;;6.18;85.29;97917.19;6284731;20;2865901;-57
2022/04/02 08:28:13;;;;;;;;;62.33;46.67;;;;;6.12;85.42;97922.97;6282335;20;3623141;-57
2022/04/02 08:31:20;;;;;;;;;72.00;51.00;;;;;6.13;85.92;97924.66;6310645;20;3638829;-57
2022/04/02 08:34:37;;;;;;;;;64.00;46.67;;;;;6.32;85.01;97927.72;6309300;20;2874363;-57
2022/04/02 08:38:09;;;;;;;;;58.33;46.33;;;;;6.20;85.42;97931.25;6311019;20;3612728;-58
2022/04/02 08:41:47;;;;;;;;;66.33;48.67;;;;;6.23;85.70;97925.69;6311442;20;2870559;-55
2022/04/02 08:45:05;;;;;;;;;69.33;50.33;;;;;6.17;86.49;97936.81;6313255;20;3648148;-57
2022/04/02 08:48:25;;;;;;;;;63.33;48.00;;;;;6.18;84.57;97930.50;6313348;20;2870111;-57
2022/04/02 08:51:12;;;;;;;;;61.00;47.00;;;;;5.62;87.22;97932.69;6311548;20;2861736;-56
2022/04/02 08:54:04;;;;;;;;;58.67;42.00;;;;;6.32;86.67;97935.69;6311306;20;2867005;-56
2022/04/02 08:56:45;;;;;;;;;61.00;49.00;;;;;5.81;86.36;97934.91;6313529;20;3610617;-57
2022/04/02 08:59:39;;;;;;;;;60.33;48.67;;;;;6.70;85.36;97936.53;6310229;20;2866935;-57
2022/04/02 09:02:29;;;;;;;;;67.00;51.00;;;;;6.17;85.44;97942.13;6314228;20;2879513;-57
2022/04/02 09:05:45;;;;;;;;;67.67;48.33;;;;;6.09;87.62;97940.00;6314735;20;3639799;-57
2022/04/02 09:08:49;;;;;;;;;58.50;48.00;;;;;6.43;87.70;97947.41;6312112;20;2865105;-57
2022/04/02 09:11:27;;;;;;;;;63.50;50.00;;;;;6.59;86.33;97954.16;6280837;20;2865863;-56
2022/04/02 09:15:12;;;;;;;;;66.67;49.33;;;;;6.77;86.33;97951.97;6281854;20;3625201;-57
2022/04/02 09:17:58;;;;;;;;;64.00;49.33;;;;;6.50;86.47;97953.97;6311471;20;3631505;-55
2022/04/02 09:21:24;;;;;;;;;65.00;48.67;;;;;6.90;85.16;97953.69;6311146;20;2872233;-53
2022/04/02 09:24:14;;;;;;;;;61.50;46.00;;;;;6.18;89.95;97958.97;6314382;20;2866913;-56
2022/04/02 09:27:14;;;;;;;;;59.67;46.00;;;;;6.23;88.95;97965.66;6278404;20;2867079;-57
2022/04/02 09:30:06;;;;;;;;;67.67;48.00;;;;;6.52;87.90;97968.03;6310863;20;3628369;-55
2022/04/02 09:33:51;;;;;;;;;73.67;55.33;;;;;6.68;87.56;97968.63;6310002;20;3635641;-56
2022/04/02 09:36:28;;;;;;;;;62.67;45.00;;;;;6.57;86.73;97976.56;6313125;20;3610686;-53
2022/04/02 09:39:41;;;;;;;;;55.50;41.00;;;;;6.59;85.98;97979.97;6308662;20;2856596;-51
2022/04/02 09:42:45;;;;;;;;;64.00;44.33;;;;;6.59;88.55;97985.31;6275257;20;3637870;-56
2022/04/02 09:45:23;;;;;;;;;58.67;49.00;;;;;6.14;89.31;97974.31;6310105;20;2869159;-57
2022/04/02 09:48:24;;;;;;;;;62.50;49.50;;;;;6.36;88.37;97979.81;6310812;20;2869033;-56
2022/04/02 09:50:59;;;;;;;;;63.67;45.33;;;;;6.70;88.34;97984.53;6278109;20;3630531;-58
2022/04/02 09:53:29;;;;;;;;;54.00;44.00;;;;;6.57;87.59;97981.91;6312766;20;2835718;-58
2022/04/02 09:56:31;;;;;;;;;48.00;41.50;;;;;5.84;89.02;97985.28;6278128;20;2864945;-59
2022/04/02 09:59:08;;;;;;;;;57.00;46.00;;;;;5.93;91.77;97987.31;6277624;20;2848259;-52
2022/04/02 10:02:14;;;;;;;;;64.00;48.00;;;;;6.19;91.15;97982.84;6276173;20;2883755;-57
2022/04/02 10:04:54;;;;;;;;;63.00;46.00;;;;;6.07;90.18;97983.72;6307855;20;2876517;-54
2022/04/02 10:08:05;;;;;;;;;44.00;36.00;;;;;5.39;91.11;97983.00;6306038;20;3628339;-57
2022/04/02 10:10:35;;;;;;;;;91.33;67.00;;;;;6.31;91.53;97992.63;6308858;20;3648140;-57
2022/04/02 10:13:04;;;;;;;;;53.33;42.00;;;;;5.89;91.40;97992.00;6313345;20;3593987;-49
2022/04/02 10:15:37;;;;;;;;;59.67;48.33;;;;;6.32;91.24;97997.00;6277395;20;2873169;-56
2022/04/02 10:18:11;;;;;;;;;70.33;53.00;;;;;6.20;91.85;97995.19;6309886;20;3649194;-51
2022/04/02 10:20:46;;;;;;;;;60.00;42.00;;;;;6.18;91.77;97990.94;6308260;20;2867036;-58
2022/04/02 10:23:24;;;;;;;;;66.33;49.00;;;;;5.98;91.84;97990.53;6277834;20;3645109;-59
2022/04/02 10:26:21;;;;;;;;;59.67;45.33;;;;;5.72;93.03;97995.00;6309909;20;2863969;-59
2022/04/02 10:28:59;;;;;;;;;64.33;51.00;;;;;5.72;94.44;98006.47;6309684;20;3617961;-51
2022/04/02 10:31:37;;;;;;;;;87.67;65.67;;;;;6.13;95.07;98000.13;6307793;20;3642928;-52
2022/04/02 10:34:58;;;;;;;;;57.50;48.00;;;;;6.29;95.01;97997.22;6312512;20;2844090;-55
2022/04/02 10:37:43;;;;;;;;;50.00;35.00;;;;;6.10;95.73;97999.47;6276278;20;2859627;-56
2022/04/02 10:40:18;;;;;;;;;70.50;53.50;;;;;6.35;95.87;97998.59;6274092;20;2881639;-57
2022/04/02 10:43:06;;;;;;;;;55.50;43.00;;;;;5.86;96.16;97997.53;6277147;20;2852339;-59
2022/04/02 10:45:41;;;;;;;;;60.00;45.00;;;;;6.25;96.56;98006.38;6277322;20;2877621;-54
2022/04/02 10:48:43;;;;;;;;;65.33;43.00;;;;;5.81;97.52;98001.47;6307518;20;3605596;-51
2022/04/02 10:51:14;;;;;;;;;64.33;47.33;;;;;5.42;97.94;97998.78;6311375;20;2881681;-55
2022/04/02 10:53:44;;;;;;;;;60.00;45.00;;;;;5.94;96.85;98010.34;6309968;20;3622240;-58
2022/04/02 10:56:22;;;;;;;;;54.00;38.00;;;;;6.14;95.36;98008.97;6308353;20;2862756;-59
2022/04/02 10:58:54;;;;;;;;;81.67;63.67;;;;;5.82;96.02;98006.72;6279655;20;2896201;-50
2022/04/02 11:01:24;;;;;;;;;56.00;37.00;;;;;6.04;96.88;98010.56;6314779;20;3642993;-54
2022/04/02 11:03:57;;;;;;;;;57.50;43.00;;;;;5.54;98.25;98012.22;6314584;20;2868982;-60
2022/04/02 11:06:49;;;;;;;;;54.00;42.00;;;;;5.85;98.44;98017.16;6283011;20;2855464;-59
2022/04/02 11:09:39;;;;;;;;;49.67;38.00;;;;;6.25;97.65;98017.03;6280988;20;2887891;-58
2022/04/02 11:12:15;;;;;;;;;45.33;34.33;;;;;6.22;95.54;98016.44;6316762;20;2864914;-50
2022/04/02 11:14:52;;;;;;;;;60.00;46.00;;;;;6.43;93.69;98016.72;6314438;20;2873218;-51
2022/04/02 11:17:30;;;;;;;;;47.50;40.00;;;;;5.67;95.36;98013.94;6279672;20;2863827;-51
2022/04/02 11:20:20;;;;;;;;;48.50;38.00;;;;;6.13;96.72;98015.25;6282463;20;2865884;-48
2022/04/02 11:22:52;;;;;;;;;58.00;44.00;;;;;5.86;96.90;98013.50;6278982;20;2868012;-49
2022/04/02 11:25:32;;;;;;;;;55.00;42.50;;;;;6.26;95.07;98015.22;6285075;20;2841937;-48
2022/04/02 11:28:09;;;;;;;;;73.00;55.67;;;;;6.22;94.96;98025.25;6283726;20;3637829;-51
2022/04/02 11:31:04;;;;;;;;;116.50;105.50;;;;;6.57;92.17;98030.72;6311516;20;4458704;-50
2022/04/02 11:33:34;;;;;;;;;60.00;44.33;;;;;6.04;94.90;98034.56;6279906;20;2871213;-52
2022/04/02 11:36:09;;;;;;;;;51.33;40.33;;;;;6.08;95.67;98034.22;6313662;20;2862889;-49
2022/04/02 11:38:58;;;;;;;;;52.00;43.00;;;;;5.90;96.14;98036.31;6314154;20;2864320;-49
2022/04/02 11:41:36;;;;;;;;;52.00;44.00;;;;;6.56;95.02;98038.88;6282363;20;2846092;-49
2022/04/02 11:44:11;;;;;;;;;49.00;40.33;;;;;5.89;95.58;98034.59;6281968;20;2860832;-53
2022/04/02 11:47:02;;;;;;;;;49.33;38.33;;;;;6.10;96.63;98031.44;6313317;20;2857549;-48
2022/04/02 11:49:43;;;;;;;;;62.00;46.50;;;;;6.32;94.01;98036.97;6313662;20;2870071;-51
2022/04/02 11:52:14;;;;;;;;;57.50;45.00;;;;;6.49;92.87;98022.44;6284069;20;2857603;-50
2022/04/02 11:54:50;;;;;;;;;64.67;47.00;;;;;6.72;91.78;98028.78;6281724;20;3631576;-51
2022/04/02 11:57:20;;;;;;;;;47.33;37.33;;;;;6.48;92.13;98031.41;6315441;20;3636665;-53